hero-logo

Top 15 Knowers of DAL Delta Air Lines Inc - 2017-07-25

Rank Fund Result (K)
1 Mik Capital Llc $3,197
2 Tyvor Capital Llc $1,613
3 Piedmont Investment Advisors Llc $1,434
4 Shellback Capital Lp $742
5 Chartwell Investment Partners Llc $522
6 Stifel Financial Corp $494
7 Carlson Capital L P $492
8 Glen Harbor Capital Management Llc $413
9 Kingdon Capital Management L L C $403
10 Dixon Hubard Feinour Brown Inc Va $359
11 Group One Trading L P $348
12 Meadow Creek Investment Management Llc $324
13 Interval Partners Lp $323
14 Otter Creek Advisors Llc $277
15 Schonfeld Strategic Advisors Llc $265
Price Chart and News From Google Finance for DAL Delta Air Lines Inc
Owner Date Shares Change Price Change Result (K)
Acrospire Investment Management Llc 2017-03-31 -1,800 $-3.23 $5
Adams Diversified Equity Fund Inc 2017-03-31 0 $-3.23 $0
Advantage Investment Management Llc 2017-03-31 197 $-3.23 $0
Afam Capital Inc 2017-03-31 3,397 $-3.23 $-10
Ahl Partners Llp 2017-03-31 -43,427 $-3.23 $140
Allen Investment Management Llc 2017-03-31 -5,570 $-3.23 $17
Altimeter Capital Management Lp 2017-03-31 0 $-3.23 $0
Amalgamated Bank 2017-03-31 -21,030 $-3.23 $67
Amf Pensionsforsakring Ab 2017-03-31 190,926 $-3.23 $-616
Ancora Advisors Llc 2017-03-31 -240 $-3.23 $0
Aperio Group Llc 2017-03-31 -19,622 $-3.23 $63
Archford Capital Strategies Llc 2017-03-31 -978 $-3.23 $3
Argentiere Capital Ag 2017-03-31 20,975 $-3.23 $-67
Assetmark Inc 2017-03-31 9 $-3.23 $0
Auxier Asset Management 2017-03-31 12,070 $-3.23 $-38
Biegel Waller Llc 2017-03-31 -13,418 $-3.23 $43
Blair William Co Il 2017-03-31 22,460 $-3.23 $-72
Bokf Na 2017-03-31 -1,967 $-3.23 $6
Boston Private Wealth Llc 2017-03-31 -8,011 $-3.23 $25
Bowling Portfolio Management Llc 2017-03-31 55,764 $-3.23 $-180
Bridgeway Capital Management Inc 2017-03-31 279,030 $-3.23 $-901
Brown Brothers Harriman Co 2017-03-31 -724 $-3.23 $2
B S Pension Fund Trustee Ltd Acting For The British Steel P 2017-03-31 -1,844 $-3.23 $5
Cahill Financial Advisors Inc 2017-03-31 -94 $-3.23 $0
California State Teachers Retirement System 2017-03-31 -71,800 $-3.23 $231
Cambria Investment Management L P 2017-03-31 345 $-3.23 $-1
Camg Solamere Management Llc 2017-03-31 13,658 $-3.23 $-44
Capital Guardian Trust Co 2017-03-31 0 $-3.23 $0
Capstone Investment Advisors Llc 2017-03-31 162,397 $-3.23 $-524
Carlson Capital L P 2017-03-31 -152,323 $-3.23 $492
Caxton Associates Lp 2017-03-31 70,000 $-3.23 $-226
Ccm Investment Advisers Llc 2017-03-31 -5,888 $-3.23 $19
Cetera Advisor Networks Llc 2017-03-31 288 $-3.23 $0
Cetera Advisors Llc 2017-03-31 178 $-3.23 $0
Cetera Investment Advisers 2017-03-31 -138 $-3.23 $0
Chartwell Investment Partners Llc 2017-03-31 -161,841 $-3.23 $522
Cmt Asset Management Ltd 2017-03-31 -6,313 $-3.23 $20
Cna Financial Corp 2017-03-31 0 $-3.23 $0
Cognios Capital Llc 2017-03-31 -3,989 $-3.23 $12
Compagnie Lombard Odier Scma 2017-03-31 -11,409 $-3.23 $36
Compton Capital Management Inc Ri 2017-03-31 -125 $-3.23 $0
Cornerstone Capital Management Holdings Llc 2017-03-31 -1,003 $-3.23 $3
Credit Capital Investments Llc 2017-03-31 -30,000 $-3.23 $96
Cyrus Capital Partners L P 2017-03-31 1,289,946 $-3.23 $-4,166
D A Davidson Co 2017-03-31 -13,931 $-3.23 $44
Dana Investment Advisors Inc 2017-03-31 5,760 $-3.23 $-18
Denver Investment Advisors Llc 2017-03-31 0 $-3.23 $0
Dixon Hubard Feinour Brown Inc Va 2017-03-31 -111,440 $-3.23 $359
Earnest Partners Llc 2017-03-31 -388 $-3.23 $1
Ellington Management Group Llc 2017-03-31 -7,600 $-3.23 $24
Envestnet Asset Management Inc 2017-03-31 -63,382 $-3.23 $204
Eulav Asset Management 2017-03-31 -54,000 $-3.23 $174
Fdo Partners Llc 2017-03-31 117,671 $-3.23 $-380
Fdx Advisors Inc 2017-03-31 -2,931 $-3.23 $9
First Commonwealth Financial Corp Pa 2017-03-31 -3,304 $-3.23 $10
First Heartland Consultants Inc 2017-03-31 3,493 $-3.23 $-11
First Pacific Advisors Llc 2017-03-31 0 $-3.23 $0
First Republic Investment Management Inc 2017-03-31 30,386 $-3.23 $-98
Focused Wealth Management Inc 2017-03-31 -724 $-3.23 $2
Friess Associates Llc 2017-03-31 280,000 $-3.23 $-904
Frontfour Capital Group Llc 2017-03-31 15,110 $-3.23 $-48
Glassman Wealth Services 2017-03-31 3 $-3.23 $0
Glen Harbor Capital Management Llc 2017-03-31 -127,960 $-3.23 $413
Glg Llc 2017-03-31 -112 $-3.23 $0
Goldentree Asset Management Lp 2017-03-31 105,190 $-3.23 $-339
Gotham Asset Management Llc 2017-03-31 152,983 $-3.23 $-494
Graticule Asia Macro Advisors Llc 2017-03-31 136,500 $-3.23 $-440
Gratry Co Llc 2017-03-31 -488 $-3.23 $1
Green Square Capital Llc 2017-03-31 -325 $-3.23 $1
Group One Trading L P 2017-03-31 -107,910 $-3.23 $348
Gsa Capital Partners Llp 2017-03-31 48,491 $-3.23 $-156
Guggenheim Capital Llc 2017-03-31 -19,088 $-3.23 $61
Hanlon Investment Management Inc 2017-03-31 -5,221 $-3.23 $16
Highbridge Capital Management Llc 2017-03-31 407,739 $-3.23 $-1,316
Horizon Kinetics Llc 2017-03-31 0 $-3.23 $0
Hrs Investment Holdings Llc 2017-03-31 0 $-3.23 $0
Ifp Advisors Inc 2017-03-31 -2,250 $-3.23 $7
Iht Wealth Management Llc 2017-03-31 -200 $-3.23 $0
Intact Investment Management Inc 2017-03-31 7,300 $-3.23 $-23
Intellectus Partners Llc 2017-03-31 18,599 $-3.23 $-60
Interval Partners Lp 2017-03-31 -100,000 $-3.23 $323
Invictus Rg 2017-03-31 -1,054 $-3.23 $3
Ipg Investment Advisors Llc 2017-03-31 0 $-3.23 $0
Itau Unibanco Holding S A 2017-03-31 -1,200 $-3.23 $3
Jacobs Levy Equity Management Inc 2017-03-31 -43,990 $-3.23 $142
Jafra Capital Management Lp 2017-03-31 -23,000 $-3.23 $74
Jane Street Group Llc 2017-03-31 8,123 $-3.23 $-26
Johnson Investment Counsel Inc 2017-03-31 5,941 $-3.23 $-19
Kentucky Retirement Systems 2017-03-31 -6,584 $-3.23 $21
Kentucky Retirement Systems Insurance Trust Fund 2017-03-31 -4,081 $-3.23 $13
Kernodle Katon Asset Management Group Llc 2017-03-31 0 $-3.23 $0
Kingdon Capital Management L L C 2017-03-31 -125,000 $-3.23 $403
Knighthead Capital Management Llc 2017-03-31 0 $-3.23 $0
Kovitz Investment Group Partners Llc 2017-03-31 603,371 $-3.23 $-1,948
Krilogy Financial Llc 2017-03-31 0 $-3.23 $0
Ksa Capital Management Llc 2017-03-31 10,000 $-3.23 $-32
Ladenburg Thalmann Financial Services Inc 2017-03-31 229 $-3.23 $0
Lorber David A 2017-03-31 -110 $-3.23 $0
Lowe Brockenbrough Co Inc 2017-03-31 2,330 $-3.23 $-7
Marathon Trading Investment Management Llc 2017-03-31 3,409 $-3.23 $-11
Mason Street Advisors Llc 2017-03-31 253 $-3.23 $0
Masters Capital Management Llc 2017-03-31 0 $-3.23 $0
Mckinley Capital Management Llc Delaware 2017-03-31 -890 $-3.23 $2
Meadow Creek Investment Management Llc 2017-03-31 -100,540 $-3.23 $324
M Holdings Securities Inc 2017-03-31 -8 $-3.23 $0
Mik Capital Llc 2017-03-31 -990,088 $-3.23 $3,197
Miles Capital Inc 2017-03-31 1,560 $-3.23 $-5
Mv Capital Management Inc 2017-03-31 -194 $-3.23 $0
National Asset Management Inc 2017-03-31 -1,100 $-3.23 $3
Northern Oak Wealth Management Inc 2017-03-31 79,228 $-3.23 $-255
Northwestern Mutual Investment Management Company Llc 2017-03-31 63,162 $-3.23 $-204
Northwestern Mutual Wealth Management Co 2017-03-31 -541 $-3.23 $1
Otter Creek Advisors Llc 2017-03-31 -85,892 $-3.23 $277
Paloma Partners Management Co 2017-03-31 2,100 $-3.23 $-6
Par Capital Management Inc 2017-03-31 0 $-3.23 $0
Patriot Financial Group Insurance Agency Llc 2017-03-31 0 $-3.23 $0
Perigon Wealth Management Llc 2017-03-31 -319 $-3.23 $1
Picton Mahoney Asset Management 2017-03-31 -2,100 $-3.23 $6
Piedmont Investment Advisors Llc 2017-03-31 -444,208 $-3.23 $1,434
Pinkerton Retirement Specialists Llc 2017-03-31 -120 $-3.23 $0
Portfolio Strategies Inc 2017-03-31 0 $-3.23 $0
Proficio Capital Partners Llc 2017-03-31 486 $-3.23 $-1
Public Employees Retirement System Of Ohio 2017-03-31 -18,528 $-3.23 $59
Qcm Cayman Ltd 2017-03-31 11,108 $-3.23 $-35
Rainier Investment Management Llc 2017-03-31 -20,580 $-3.23 $66
Raymond James Associates 2017-03-31 64,886 $-3.23 $-209
Redwood Capital Management Llc 2017-03-31 0 $-3.23 $0
Redwood Investments Llc 2017-03-31 0 $-3.23 $0
Riverhead Capital Management Llc 2017-03-31 -80,506 $-3.23 $260
Rothschild Asset Management Inc 2017-03-31 116,503 $-3.23 $-376
Roundview Capital Llc 2017-03-31 5,100 $-3.23 $-16
Saturna Capital Corp 2017-03-31 11,100 $-3.23 $-35
Schonfeld Strategic Advisors Llc 2017-03-31 -82,216 $-3.23 $265
Sciencast Management Lp 2017-03-31 22,855 $-3.23 $-73
Scoria Capital Partners Lp 2017-03-31 20,000 $-3.23 $-64
Scotia Capital Inc 2017-03-31 13,623 $-3.23 $-44
Secor Capital Advisors Lp 2017-03-31 49,504 $-3.23 $-159
Seven Eight Capital Lp 2017-03-31 -2,000 $-3.23 $6
Shellback Capital Lp 2017-03-31 -230,000 $-3.23 $742
Signaturefd Llc 2017-03-31 5,733 $-3.23 $-18
Sns Financial Group Llc 2017-03-31 -11,597 $-3.23 $37
Sowell Financial Services Llc 2017-03-31 214 $-3.23 $0
Squarepoint Ops Llc 2017-03-31 189,890 $-3.23 $-613
Steelhead Partners Llc 2017-03-31 0 $-3.23 $0
Sterling Capital Management Llc 2017-03-31 66,450 $-3.23 $-214
Stifel Financial Corp 2017-03-31 -153,125 $-3.23 $494
Teewinot Capital Advisers L L C 2017-03-31 28,655 $-3.23 $-92
Tiger Management L L C 2017-03-31 0 $-3.23 $0
Tortoise Investment Management Llc 2017-03-31 -765 $-3.23 $2
Two Sigma Securities Llc 2017-03-31 14,345 $-3.23 $-46
Tyvor Capital Llc 2017-03-31 -499,440 $-3.23 $1,613
United Capital Financial Advisers Llc 2017-03-31 -65,479 $-3.23 $211
Vantage Financial Partners Ltd Inc 2017-03-31 5,800 $-3.23 $-18
Veritable L P 2017-03-31 -43 $-3.23 $0
Verition Fund Management Llc 2017-03-31 32,187 $-3.23 $-103
Voloridge Investment Management Llc 2017-03-31 145,953 $-3.23 $-471
Walleye Trading Llc 2017-03-31 62,966 $-3.23 $-203
Westside Investment Management Inc 2017-03-31 8,250 $-3.23 $-26
Woodson Capital Management Lp 2017-03-31 24,000 $-3.23 $-77
Yorkbridge Wealth Partners Llc 2017-03-31 -4,180 $-3.23 $13